Time;durP1;ratioP1;P1;durP2;ratioP2;P2;SDS_P1;SDS_P2;PMS_P1;PMS_P2;Temp;Humidity;BMP_temperature;BMP_pressure;BME280_temperature;BME280_humidity;BME280_pressure;Samples;Min_cycle;Max_cycle;Signal;HPM_P1;HPM_P2
2022/06/21 00:00:23;;;;;;;12.93;4.10;;;22.20;64.60;;;;;;5030981;28;20183;-76
2022/06/21 00:02:53;;;;;;;15.55;4.60;;;22.30;64.60;;;;;;5030282;28;20120;-77
2022/06/21 00:05:29;;;;;;;14.32;4.45;;;22.20;64.50;;;;;;5034107;28;20033;-77
2022/06/21 00:07:56;;;;;;;14.90;4.25;;;22.20;64.60;;;;;;5038972;28;20091;-77
2022/06/21 00:10:23;;;;;;;13.73;4.55;;;22.20;64.80;;;;;;5050087;28;20032;-77
2022/06/21 00:12:48;;;;;;;14.48;4.40;;;22.10;64.80;;;;;;5045595;28;20385;-77
2022/06/21 00:15:15;;;;;;;18.02;4.65;;;22.20;65.00;;;;;;5038270;28;20041;-76
2022/06/21 00:17:45;;;;;;;12.23;4.10;;;22.20;65.10;;;;;;5035365;28;20029;-77
2022/06/21 00:20:18;;;;;;;12.20;4.50;;;22.20;65.30;;;;;;5046499;28;20021;-77
2022/06/21 00:22:44;;;;;;;11.23;4.45;;;22.10;65.40;;;;;;5037978;28;20042;-77
2022/06/21 00:25:20;;;;;;;15.63;4.80;;;22.10;65.50;;;;;;5027826;28;20025;-77
2022/06/21 00:27:47;;;;;;;13.50;4.40;;;22.10;65.50;;;;;;5034650;28;20056;-77
2022/06/21 00:30:14;;;;;;;15.68;4.43;;;22.10;65.40;;;;;;5042405;28;20045;-77
2022/06/21 00:32:40;;;;;;;13.30;4.40;;;22.10;65.30;;;;;;5037233;28;20025;-78
2022/06/21 00:35:11;;;;;;;14.68;4.22;;;22.10;65.40;;;;;;5034530;28;20040;-77
2022/06/21 00:37:37;;;;;;;;;;;22.00;65.40;;;;;;5031364;28;20026;-76
2022/06/21 00:40:29;;;;;;;17.08;4.50;;;22.00;65.50;;;;;;5033313;28;19919;-76
2022/06/21 00:43:12;;;;;;;15.77;4.70;;;21.90;66.10;;;;;;5039258;28;20061;-77
2022/06/21 00:45:41;;;;;;;13.85;4.30;;;21.80;66.30;;;;;;5022183;28;20071;-76
2022/06/21 00:48:24;;;;;;;13.70;4.40;;;21.70;66.70;;;;;;5033385;28;20112;-77
2022/06/21 00:50:56;;;;;;;14.50;4.63;;;21.60;67.30;;;;;;5027330;28;20052;-77
2022/06/21 00:53:31;;;;;;;15.10;4.75;;;21.50;67.60;;;;;;5031561;28;20025;-77
2022/06/21 00:56:12;;;;;;;15.25;4.38;;;21.50;68.00;;;;;;5028099;28;20064;-77
2022/06/21 00:58:38;;;;;;;14.15;4.47;;;21.40;68.30;;;;;;5028519;28;20559;-77
2022/06/21 01:01:15;;;;;;;15.80;4.25;;;21.30;68.40;;;;;;5033762;28;20116;-76
2022/06/21 01:03:46;;;;;;;16.83;4.72;;;21.30;68.80;;;;;;5022933;28;20037;-77
2022/06/21 01:06:18;;;;;;;;;;;21.20;68.90;;;;;;5029337;28;20025;-77
2022/06/21 01:08:48;;;;;;;14.27;4.38;;;21.20;69.00;;;;;;5026676;28;19912;-76
2022/06/21 01:11:23;;;;;;;13.07;4.60;;;21.10;69.00;;;;;;5028586;28;20025;-77
2022/06/21 01:13:53;;;;;;;16.13;4.60;;;21.10;70.10;;;;;;5028298;28;20041;-76
2022/06/21 01:16:19;;;;;;;16.58;4.40;;;21.00;69.40;;;;;;5028985;28;20040;-76
2022/06/21 01:18:46;;;;;;;14.60;4.50;;;21.00;69.50;;;;;;5030080;28;20021;-77
2022/06/21 01:21:15;;;;;;;17.05;4.30;;;21.00;69.50;;;;;;5028893;28;20052;-76
2022/06/21 01:24:32;;;;;;;16.33;4.50;;;20.90;69.50;;;;;;5027070;28;20397;-76
2022/06/21 01:27:03;;;;;;;13.45;4.32;;;20.90;69.60;;;;;;5025289;28;20128;-76
2022/06/21 01:29:30;;;;;;;;;;;20.90;69.40;;;;;;5027646;28;20037;-76
2022/06/21 01:32:02;;;;;;;20.00;5.38;;;20.90;69.60;;;;;;5021758;28;19916;-77
2022/06/21 01:34:28;;;;;;;10.15;4.38;;;20.90;69.60;;;;;;5022040;28;20033;-77
2022/06/21 01:37:07;;;;;;;13.52;4.60;;;20.90;69.60;;;;;;5022503;28;20056;-76
2022/06/21 01:40:08;;;;;;;14.25;4.28;;;20.80;70.60;;;;;;5016393;28;20034;-76
2022/06/21 01:42:44;;;;;;;13.52;4.28;;;20.80;69.50;;;;;;5020635;28;20064;-77
2022/06/21 01:45:15;;;;;;;13.95;4.30;;;20.80;69.50;;;;;;5008478;28;21807;-76
2022/06/21 01:47:52;;;;;;;11.60;4.25;;;20.80;69.70;;;;;;5024709;28;20041;-76
2022/06/21 01:50:20;;;;;;;11.88;4.10;;;20.80;69.40;;;;;;5026694;28;20067;-76
2022/06/21 01:52:49;;;;;;;13.48;4.35;;;20.80;69.20;;;;;;5018217;28;20034;-76
2022/06/21 01:55:26;;;;;;;12.35;4.18;;;20.70;69.10;;;;;;5019785;28;20049;-76
2022/06/21 01:57:53;;;;;;;14.18;4.35;;;20.70;69.10;;;;;;5020295;28;20033;-76
2022/06/21 02:00:19;;;;;;;16.35;4.18;;;20.70;68.90;;;;;;5025196;28;20033;-76
2022/06/21 02:02:51;;;;;;;10.73;4.28;;;20.70;68.70;;;;;;5025125;28;20049;-76
2022/06/21 02:05:40;;;;;;;12.48;3.92;;;20.70;68.50;;;;;;5030113;28;20025;-76
2022/06/21 02:08:12;;;;;;;16.10;4.40;;;20.70;68.40;;;;;;5033375;28;20062;-76
2022/06/21 02:10:47;;;;;;;15.70;4.10;;;20.70;68.20;;;;;;5034001;28;20092;-76
2022/06/21 02:13:32;;;;;;;10.45;3.90;;;20.80;68.00;;;;;;5027049;28;20033;-76
2022/06/21 02:16:21;;;;;;;12.10;4.00;;;20.70;67.90;;;;;;5035021;28;20037;-76
2022/06/21 02:18:51;;;;;;;11.57;3.80;;;20.70;67.50;;;;;;5026370;28;20025;-76
2022/06/21 02:21:34;;;;;;;13.20;3.83;;;20.70;67.30;;;;;;5028581;28;20523;-76
2022/06/21 02:24:01;;;;;;;8.07;3.80;;;20.70;67.20;;;;;;5055800;28;20396;-76
2022/06/21 02:26:30;;;;;;;10.23;3.78;;;20.70;66.90;;;;;;5027851;28;20033;-76
2022/06/21 02:28:56;;;;;;;11.25;3.97;;;20.70;66.70;;;;;;5026701;28;20535;-76
2022/06/21 02:31:26;;;;;;;10.52;3.80;;;20.70;66.70;;;;;;5026120;28;20116;-76
2022/06/21 02:33:55;;;;;;;13.67;4.30;;;20.70;66.70;;;;;;5025314;28;20109;-76
2022/06/21 02:36:28;;;;;;;10.85;3.83;;;20.70;66.70;;;;;;5028570;28;20041;-76
2022/06/21 02:38:57;;;;;;;12.30;4.05;;;20.70;66.80;;;;;;5026533;28;20034;-76
2022/06/21 02:41:44;;;;;;;10.57;3.78;;;20.70;67.20;;;;;;5029000;28;20050;-76
2022/06/21 02:46:49;;;;;;;11.25;3.88;;;20.70;67.30;;;;;;4474834;22;20062;-75
2022/06/21 02:49:54;;;;;;;12.40;4.30;;;20.70;67.40;;;;;;4990940;28;20026;-75
2022/06/21 02:52:29;;;;;;;10.20;3.78;;;20.60;67.60;;;;;;4926607;29;20166;-75
2022/06/21 02:55:05;;;;;;;12.90;4.10;;;20.60;67.60;;;;;;4926600;29;20055;-75
2022/06/21 02:57:39;;;;;;;11.90;3.85;;;20.60;67.90;;;;;;4928683;29;20028;-74
2022/06/21 03:00:12;;;;;;;11.63;3.95;;;20.70;67.90;;;;;;4929972;29;20031;-75
2022/06/21 03:02:38;;;;;;;10.60;3.90;;;20.70;67.80;;;;;;4929745;29;20526;-75
2022/06/21 03:05:26;;;;;;;12.52;4.35;;;20.70;67.80;;;;;;4930373;29;20075;-75
2022/06/21 03:07:58;;;;;;;10.23;4.15;;;20.70;67.80;;;;;;4925532;29;20588;-75
2022/06/21 03:10:28;;;;;;;11.95;4.20;;;20.70;67.90;;;;;;4923358;29;20517;-75
2022/06/21 03:13:03;;;;;;;11.55;3.80;;;20.70;67.90;;;;;;4929392;29;20829;-75
2022/06/21 03:15:29;;;;;;;10.98;3.95;;;20.70;67.90;;;;;;4930686;29;20043;-75
2022/06/21 03:18:00;;;;;;;11.60;3.90;;;20.70;67.70;;;;;;4930867;29;20455;-75
2022/06/21 03:20:27;;;;;;;14.80;4.05;;;20.70;67.70;;;;;;4927624;29;20573;-75
2022/06/21 03:22:54;;;;;;;11.05;3.78;;;20.70;67.60;;;;;;4928840;29;20115;-75
2022/06/21 03:25:25;;;;;;;9.32;4.18;;;20.70;67.70;;;;;;4932171;29;20035;-75
2022/06/21 03:27:57;;;;;;;11.30;4.00;;;20.70;67.90;;;;;;4948104;28;20503;-77
2022/06/21 03:30:28;;;;;;;10.48;4.10;;;20.70;68.10;;;;;;5000782;28;20033;-75
2022/06/21 03:32:55;;;;;;;11.15;4.00;;;20.70;68.20;;;;;;5005172;28;20657;-75
2022/06/21 03:35:23;;;;;;;9.68;3.95;;;20.60;68.20;;;;;;5001384;28;20069;-75
2022/06/21 03:37:49;;;;;;;9.05;4.25;;;20.60;68.20;;;;;;5000958;28;20566;-75
2022/06/21 03:43:25;;;;;;;10.23;3.90;;;20.60;68.30;;;;;;5000754;28;20040;-75
2022/06/21 03:45:54;;;;;;;11.95;3.83;;;20.60;68.20;;;;;;4993363;28;20051;-75
2022/06/21 03:48:30;;;;;;;10.82;3.67;;;20.60;68.10;;;;;;4998024;28;20049;-75
2022/06/21 03:51:04;;;;;;;12.30;3.75;;;20.60;68.20;;;;;;5003030;28;20048;-75
2022/06/21 03:53:39;;;;;;;10.65;3.90;;;20.70;69.30;;;;;;5001273;28;20030;-75
2022/06/21 03:56:24;;;;;;;8.73;3.83;;;20.70;68.40;;;;;;5000357;28;20081;-75
2022/06/21 03:59:09;;;;;;;10.05;4.10;;;20.70;68.40;;;;;;4986460;28;20461;-75
2022/06/21 04:01:40;;;;;;;9.55;3.97;;;20.70;68.30;;;;;;5004289;28;20030;-75
2022/06/21 04:04:14;;;;;;;10.02;3.97;;;20.70;68.30;;;;;;5002627;28;20382;-75
2022/06/21 04:06:55;;;;;;;8.77;4.03;;;20.70;68.30;;;;;;4996560;28;20030;-74
2022/06/21 04:09:44;;;;;;;11.30;4.05;;;20.70;68.30;;;;;;4996648;28;20032;-74
2022/06/21 04:12:51;;;;;;;8.82;3.70;;;20.80;68.60;;;;;;5001154;28;20121;-74
2022/06/21 04:15:30;;;;;;;10.75;4.13;;;20.70;68.80;;;;;;4994070;28;20045;-74
2022/06/21 04:18:06;;;;;;;12.98;4.07;;;20.70;68.90;;;;;;4999087;28;20065;-74
2022/06/21 04:20:41;;;;;;;12.10;4.72;;;20.70;69.10;;;;;;4999646;28;20036;-75
2022/06/21 04:23:11;;;;;;;13.30;4.45;;;20.70;69.20;;;;;;4996679;28;20034;-74
2022/06/21 04:25:57;;;;;;;11.20;4.40;;;20.70;69.50;;;;;;5004026;28;20117;-74
2022/06/21 04:28:39;;;;;;;10.68;4.30;;;20.70;69.70;;;;;;5001446;28;20137;-73
2022/06/21 04:31:18;;;;;;;9.90;4.65;;;20.70;69.80;;;;;;4991887;28;20022;-77
2022/06/21 04:33:50;;;;;;;14.07;4.75;;;20.70;70.00;;;;;;5000796;28;20038;-77
2022/06/21 04:36:32;;;;;;;10.48;4.28;;;20.70;70.20;;;;;;4999351;28;20824;-77
2022/06/21 04:39:10;;;;;;;14.50;4.80;;;20.70;70.40;;;;;;5001756;28;20224;-76
2022/06/21 04:41:42;;;;;;;13.52;4.85;;;20.60;70.40;;;;;;5002450;28;20029;-77
2022/06/21 04:44:12;;;;;;;14.15;5.00;;;20.60;70.60;;;;;;5004285;28;20164;-75
2022/06/21 04:46:41;;;;;;;15.40;4.72;;;20.60;70.70;;;;;;5006766;28;20128;-78
2022/06/21 04:49:18;;;;;;;11.18;4.80;;;20.60;70.80;;;;;;5000170;28;20026;-76
2022/06/21 04:52:30;;;;;;;14.40;5.13;;;20.50;70.70;;;;;;5000445;28;20041;-77
2022/06/21 04:55:01;;;;;;;12.55;5.18;;;20.50;70.80;;;;;;4997276;28;20033;-78
2022/06/21 04:57:29;;;;;;;12.30;4.47;;;20.50;70.80;;;;;;4997629;28;20018;-81
2022/06/21 05:00:19;;;;;;;14.85;4.63;;;20.40;71.00;;;;;;5004187;28;20061;-77
2022/06/21 05:02:51;;;;;;;16.90;4.97;;;20.30;71.10;;;;;;4999149;28;20408;-77
2022/06/21 05:05:31;;;;;;;10.57;4.35;;;20.30;71.50;;;;;;5004282;28;20073;-79
2022/06/21 05:08:12;;;;;;;10.23;4.28;;;20.30;71.60;;;;;;4993669;28;20199;-74
2022/06/21 05:10:44;;;;;;;12.13;4.43;;;20.20;71.40;;;;;;4997253;28;20034;-73
2022/06/21 05:13:19;;;;;;;11.30;4.30;;;20.20;71.40;;;;;;4998900;28;20030;-76
2022/06/21 05:15:45;;;;;;;11.98;5.18;;;20.20;71.50;;;;;;4991681;28;20057;-74
2022/06/21 05:18:23;;;;;;;13.02;4.95;;;20.20;71.60;;;;;;4999288;28;20485;-73
2022/06/21 05:20:53;;;;;;;8.95;4.20;;;20.10;71.30;;;;;;5004413;28;20065;-73
2022/06/21 05:23:22;;;;;;;12.40;4.50;;;20.20;71.40;;;;;;4991669;28;20095;-72
2022/06/21 05:26:08;;;;;;;8.98;3.95;;;20.20;71.20;;;;;;4999278;28;20034;-78
2022/06/21 05:28:48;;;;;;;11.88;4.43;;;20.30;70.90;;;;;;5004620;28;20050;-78
2022/06/21 05:31:17;;;;;;;;;;;20.30;70.70;;;;;;5005154;28;20036;-77
2022/06/21 05:33:57;;;;;;;11.57;4.38;;;20.30;70.60;;;;;;5002969;28;19921;-80
2022/06/21 05:36:30;;;;;;;14.77;4.47;;;20.40;70.40;;;;;;5000511;28;20033;-79
2022/06/21 05:39:08;;;;;;;10.38;4.20;;;20.40;70.40;;;;;;5001304;28;20118;-80
2022/06/21 05:41:40;;;;;;;10.73;4.20;;;20.50;70.10;;;;;;5001458;28;20021;-75
2022/06/21 05:44:20;;;;;;;10.02;4.05;;;20.50;69.70;;;;;;5000006;28;20089;-77
2022/06/21 05:46:48;;;;;;;11.30;4.30;;;20.50;70.40;;;;;;4990985;28;20045;-77
2022/06/21 05:49:33;;;;;;;8.40;3.90;;;20.70;69.30;;;;;;4997986;28;20100;-78
2022/06/21 05:52:03;;;;;;;15.38;4.38;;;20.70;69.00;;;;;;4989027;28;20030;-76
2022/06/21 05:54:58;;;;;;;11.73;3.92;;;20.80;68.80;;;;;;4995450;28;20030;-76
2022/06/21 05:57:31;;;;;;;10.43;3.85;;;20.80;68.30;;;;;;4997804;28;20420;-78
2022/06/21 06:00:00;;;;;;;16.00;4.53;;;20.90;68.00;;;;;;5001375;28;20035;-81
2022/06/21 06:02:35;;;;;;;10.00;4.00;;;20.90;67.60;;;;;;5004219;28;20131;-80
2022/06/21 06:05:20;;;;;;;10.13;3.70;;;20.90;67.40;;;;;;4997179;28;20095;-81
2022/06/21 06:07:53;;;;;;;9.43;4.00;;;21.00;67.10;;;;;;5004325;28;20061;-83
2022/06/21 06:10:22;;;;;;;10.15;3.92;;;21.00;66.80;;;;;;4997518;28;20117;-81
2022/06/21 06:12:53;;;;;;;15.10;5.65;;;21.10;66.60;;;;;;4994065;28;20080;-80
2022/06/21 06:15:34;;;;;;;12.00;4.88;;;21.10;66.40;;;;;;4991885;28;20030;-81
2022/06/21 06:18:09;;;;;;;10.27;4.05;;;21.10;66.10;;;;;;4993731;28;20073;-81
2022/06/21 06:21:01;;;;;;;13.63;4.40;;;21.20;65.90;;;;;;5005541;28;20036;-81
2022/06/21 06:23:48;;;;;;;10.02;4.15;;;21.20;65.70;;;;;;4992013;28;20030;-80
2022/06/21 06:26:16;;;;;;;10.77;4.20;;;21.20;65.80;;;;;;4999593;28;20519;-79
2022/06/21 06:28:52;;;;;;;11.82;4.50;;;21.20;65.60;;;;;;4998641;28;20026;-77
2022/06/21 06:31:28;;;;;;;9.45;4.13;;;21.20;65.40;;;;;;4996261;28;20037;-79
2022/06/21 06:34:16;;;;;;;10.13;4.13;;;21.30;65.40;;;;;;5011107;28;20029;-80
2022/06/21 06:36:53;;;;;;;11.13;4.15;;;21.20;65.50;;;;;;4995969;28;20026;-80
2022/06/21 06:39:24;;;;;;;11.38;4.55;;;21.20;65.30;;;;;;5001473;28;20631;-79
2022/06/21 06:42:07;;;;;;;13.05;4.47;;;21.10;65.60;;;;;;4994983;28;20043;-78
2022/06/21 06:44:47;;;;;;;8.20;4.07;;;21.10;65.60;;;;;;5006012;28;20089;-78
2022/06/21 06:47:25;;;;;;;11.63;4.38;;;21.10;65.60;;;;;;4997513;28;20066;-78
2022/06/21 06:50:23;;;;;;;11.40;4.40;;;21.10;65.50;;;;;;5005979;28;20048;-79
2022/06/21 06:53:01;;;;;;;8.70;4.03;;;21.20;65.30;;;;;;5000566;28;20105;-77
2022/06/21 06:55:42;;;;;;;13.13;4.35;;;21.40;64.50;;;;;;5010062;28;20022;-78
2022/06/21 06:58:52;;;;;;;10.55;4.22;;;22.40;61.50;;;;;;5004493;28;20034;-78
2022/06/21 07:01:45;;;;;;;22.65;4.13;;;23.50;57.50;;;;;;4942996;28;20569;-77
2022/06/21 07:04:16;;;;;;;8.88;3.45;;;24.80;52.50;;;;;;4949753;29;20134;-77
2022/06/21 07:06:47;;;;;;;8.77;3.60;;;26.00;48.00;;;;;;4944106;29;20023;-80
2022/06/21 07:09:32;;;;;;;10.55;3.60;;;26.80;45.10;;;;;;4937954;29;20530;-79
2022/06/21 07:12:18;;;;;;;7.88;3.20;;;27.40;43.30;;;;;;4950339;29;20071;-80
2022/06/21 07:14:46;;;;;;;9.77;3.38;;;27.90;41.60;;;;;;4941948;28;20043;-78
2022/06/21 07:17:41;;;;;;;8.38;3.50;;;28.30;40.50;;;;;;4941066;29;20035;-79
2022/06/21 07:20:18;;;;;;;8.65;3.65;;;28.70;39.60;;;;;;4947863;28;20028;-79
2022/06/21 07:22:44;;;;;;;9.80;3.65;;;29.20;38.40;;;;;;4941550;29;20039;-78
2022/06/21 07:25:40;;;;;;;10.95;3.60;;;29.50;37.80;;;;;;4940372;29;20086;-79
2022/06/21 07:28:15;;;;;;;11.82;3.50;;;29.90;36.90;;;;;;4943444;28;20027;-77
2022/06/21 07:30:47;;;;;;;7.93;3.70;;;30.30;35.90;;;;;;4946533;29;20058;-77
2022/06/21 07:33:35;;;;;;;8.68;3.42;;;30.60;35.20;;;;;;4948739;28;20031;-77
2022/06/21 07:36:08;;;;;;;11.02;3.78;;;30.80;34.90;;;;;;4945605;28;20046;-77
2022/06/21 07:38:38;;;;;;;8.93;3.60;;;31.10;34.40;;;;;;5001280;28;20030;-77
2022/06/21 07:41:12;;;;;;;9.23;3.53;;;31.20;33.80;;;;;;5010368;28;20030;-77
2022/06/21 07:43:50;;;;;;;8.93;3.33;;;31.30;33.70;;;;;;5009695;28;20088;-77
2022/06/21 07:46:42;;;;;;;11.20;3.70;;;31.00;34.10;;;;;;5005386;28;20401;-77
2022/06/21 07:49:28;;;;;;;10.38;3.60;;;30.50;33.90;;;;;;5003508;28;20018;-77
2022/06/21 07:52:02;;;;;;;9.68;3.80;;;29.90;34.90;;;;;;5005969;28;20030;-77
2022/06/21 07:54:37;;;;;;;10.93;3.42;;;29.40;36.80;;;;;;5000555;28;20054;-77
2022/06/21 07:57:12;;;;;;;10.55;3.75;;;28.90;38.20;;;;;;5009992;28;20038;-77
2022/06/21 07:59:43;;;;;;;9.05;3.60;;;28.50;39.60;;;;;;5003544;28;20030;-76
2022/06/21 08:08:33;;;;;;;9.88;3.35;;;27.90;42.20;;;;;;5002094;28;20041;-76
2022/06/21 08:11:25;;;;;;;9.27;3.60;;;27.90;41.50;;;;;;5005240;28;20101;-76
2022/06/21 08:13:51;;;;;;;9.65;3.47;;;27.80;41.20;;;;;;4996837;28;20076;-77
2022/06/21 08:16:21;;;;;;;9.90;3.70;;;27.60;41.40;;;;;;5008545;28;20022;-76
2022/06/21 08:19:05;;;;;;;9.10;3.65;;;27.50;42.10;;;;;;5008509;28;20026;-76
2022/06/21 08:21:46;;;;;;;8.80;3.38;;;27.30;42.40;;;;;;5009020;28;20084;-73
2022/06/21 08:24:29;;;;;;;7.05;3.40;;;27.30;43.10;;;;;;5005490;28;20038;-77
2022/06/21 08:27:19;;;;;;;8.32;3.40;;;27.30;43.60;;;;;;5010455;28;20032;-77
2022/06/21 08:29:53;;;;;;;9.30;3.55;;;27.40;43.80;;;;;;4998405;28;20358;-77
2022/06/21 08:32:43;;;;;;;9.68;3.55;;;27.40;43.80;;;;;;5006217;28;20041;-77
2022/06/21 08:35:24;;;;;;;7.95;3.40;;;27.50;43.50;;;;;;5000288;28;20045;-77
2022/06/21 08:37:59;;;;;;;9.65;3.50;;;27.50;43.40;;;;;;4998718;28;20022;-76
2022/06/21 08:40:34;;;;;;;8.57;3.53;;;27.60;43.20;;;;;;5005575;28;20022;-77
2022/06/21 08:43:18;;;;;;;10.27;3.50;;;27.60;43.50;;;;;;4998665;28;20456;-77
2022/06/21 08:46:02;;;;;;;7.38;3.20;;;27.60;43.90;;;;;;5006297;28;20057;-77
2022/06/21 08:48:57;;;;;;;10.00;3.30;;;27.80;44.10;;;;;;5007400;28;20045;-77
2022/06/21 08:52:00;;;;;;;8.45;3.33;;;27.90;43.50;;;;;;5002731;28;20559;-76
2022/06/21 08:55:02;;;;;;;9.38;3.47;;;28.10;42.90;;;;;;4993011;28;20133;-77
2022/06/21 08:57:44;;;;;;;8.88;3.30;;;28.30;42.30;;;;;;4991823;28;20040;-77
2022/06/21 09:00:42;;;;;;;9.30;3.42;;;28.50;42.00;;;;;;4991963;28;20030;-77
2022/06/21 09:03:36;;;;;;;9.52;3.03;;;28.70;41.70;;;;;;5008097;28;20018;-77
2022/06/21 09:06:04;;;;;;;10.30;3.22;;;28.90;41.50;;;;;;5018953;28;20045;-78
2022/06/21 09:08:48;;;;;;;6.70;3.00;;;29.10;40.70;;;;;;5005380;28;20494;-78
2022/06/21 09:11:50;;;;;;;7.72;3.22;;;29.30;40.70;;;;;;5006070;28;20457;-80
2022/06/21 09:14:37;;;;;;;8.68;3.08;;;29.40;40.40;;;;;;5004408;28;20031;-77
2022/06/21 09:17:15;;;;;;;11.90;3.10;;;29.70;39.70;;;;;;5002424;28;20053;-78
2022/06/21 09:19:40;;;;;;;18.13;3.33;;;29.90;39.40;;;;;;5006234;28;20536;-77
2022/06/21 09:22:31;;;;;;;10.07;3.25;;;30.30;38.20;;;;;;5004987;28;20037;-81
2022/06/21 09:25:02;;;;;;;7.20;2.85;;;30.90;37.00;;;;;;4995507;28;20048;-77
2022/06/21 09:27:38;;;;;;;12.38;3.60;;;31.50;36.00;;;;;;4997117;28;20026;-77
2022/06/21 09:30:09;;;;;;;7.20;3.22;;;32.30;33.90;;;;;;5001314;28;20449;-77
2022/06/21 09:33:01;;;;;;;9.00;3.38;;;33.10;32.40;;;;;;4997245;28;20036;-78
2022/06/21 09:35:51;;;;;;;7.72;3.05;;;33.70;31.40;;;;;;4999624;28;20034;-78
2022/06/21 09:38:34;;;;;;;8.43;2.75;;;34.20;30.80;;;;;;4997027;28;20051;-79
2022/06/21 09:41:48;;;;;;;8.32;2.95;;;34.70;30.00;;;;;;5005033;28;20428;-78
2022/06/21 09:44:13;;;;;;;7.55;2.90;;;35.30;29.70;;;;;;5012641;28;20068;-81
2022/06/21 09:46:54;;;;;;;8.65;3.00;;;35.90;28.60;;;;;;4997517;28;20410;-80
2022/06/21 09:49:35;;;;;;;9.98;2.72;;;36.30;27.90;;;;;;5005990;28;20030;-80
2022/06/21 09:52:22;;;;;;;8.50;3.10;;;36.60;27.40;;;;;;4996588;28;20026;-80
2022/06/21 09:55:18;;;;;;;7.07;2.75;;;36.90;27.30;;;;;;4996135;28;20060;-81
2022/06/21 09:57:55;;;;;;;9.05;3.15;;;37.40;26.70;;;;;;5006404;28;20030;-82
2022/06/21 10:00:23;;;;;;;7.93;2.70;;;37.80;26.00;;;;;;5004522;28;20026;-82
2022/06/21 10:03:03;;;;;;;10.20;2.58;;;38.20;26.00;;;;;;5008298;28;20096;-82
2022/06/21 10:05:37;;;;;;;8.43;2.83;;;37.80;26.50;;;;;;4994716;28;20416;-81
2022/06/21 10:08:11;;;;;;;9.45;2.92;;;37.90;26.20;;;;;;4996341;28;20054;-82
2022/06/21 10:11:04;;;;;;;7.93;2.80;;;38.40;25.50;;;;;;5001135;28;20022;-82
2022/06/21 10:13:43;;;;;;;10.43;2.72;;;39.00;24.80;;;;;;4999222;28;20117;-83
2022/06/21 10:16:28;;;;;;;8.45;2.50;;;39.50;24.60;;;;;;4996787;28;20037;-83
2022/06/21 10:19:16;;;;;;;7.40;2.30;;;39.90;24.00;;;;;;5001891;28;20033;-82
2022/06/21 10:22:02;;;;;;;8.65;3.00;;;39.60;23.80;;;;;;5014054;28;20030;-83
2022/06/21 10:24:51;;;;;;;9.88;2.90;;;38.60;24.80;;;;;;4993205;28;20061;-81
2022/06/21 10:27:40;;;;;;;8.40;2.80;;;38.40;25.30;;;;;;5011955;28;20076;-83
2022/06/21 10:30:08;;;;;;;10.50;2.80;;;39.20;24.70;;;;;;4998541;28;20046;-78
2022/06/21 10:32:52;;;;;;;6.63;2.80;;;39.80;24.00;;;;;;5009746;28;20030;-81
2022/06/21 10:35:40;;;;;;;9.55;2.88;;;37.70;26.00;;;;;;5013475;28;20026;-82
2022/06/21 10:38:20;;;;;;;7.68;2.70;;;36.00;28.20;;;;;;5006135;28;20014;-82
2022/06/21 10:41:01;;;;;;;11.73;2.92;;;35.20;29.10;;;;;;5010484;28;20031;-81
2022/06/21 10:43:26;;;;;;;11.07;2.85;;;37.60;26.50;;;;;;5008592;28;20079;-77
2022/06/21 10:46:13;;;;;;;6.97;2.50;;;39.00;25.10;;;;;;5004967;28;20054;-79
2022/06/21 10:49:16;;;;;;;7.78;2.70;;;38.70;24.90;;;;;;5009029;28;20524;-79
2022/06/21 10:52:11;;;;;;;8.65;2.75;;;39.60;23.80;;;;;;5012597;28;20461;-78
2022/06/21 10:54:48;;;;;;;7.15;2.35;;;40.60;23.40;;;;;;4998908;28;20026;-79
2022/06/21 10:57:29;;;;;;;8.02;2.50;;;38.90;25.00;;;;;;5000787;28;20065;-79
2022/06/21 11:03:21;;;;;;;7.35;2.30;;;40.50;23.30;;;;;;4992110;28;20097;-79
2022/06/21 11:05:53;;;;;;;8.35;2.45;;;41.50;22.50;;;;;;5009184;28;20029;-79
2022/06/21 11:08:56;;;;;;;5.95;2.15;;;40.30;23.30;;;;;;5000018;28;20034;-78
2022/06/21 11:11:43;;;;;;;5.60;2.17;;;40.10;23.70;;;;;;4996710;28;20041;-79
2022/06/21 11:14:27;;;;;;;9.43;2.42;;;41.30;22.60;;;;;;4993420;28;20054;-79
2022/06/21 11:17:11;;;;;;;8.70;2.40;;;41.90;22.10;;;;;;4996071;28;20030;-80
2022/06/21 11:20:08;;;;;;;6.20;2.10;;;42.10;21.80;;;;;;4999744;28;20031;-80
2022/06/21 11:22:39;;;;;;;6.22;2.00;;;42.70;21.30;;;;;;4994115;28;20021;-80
2022/06/21 11:25:31;;;;;;;8.77;2.10;;;43.20;21.10;;;;;;4994458;28;20038;-76
2022/06/21 11:28:54;;;;;;;7.43;2.10;;;43.20;20.70;;;;;;4905033;29;20036;-77
2022/06/21 11:31:44;;;;;;;6.68;1.98;;;43.10;20.80;;;;;;4895788;29;20045;-79
2022/06/21 11:34:38;;;;;;;6.90;2.05;;;43.30;20.40;;;;;;4894238;29;20036;-77
2022/06/21 11:37:27;;;;;;;6.75;1.92;;;43.50;20.20;;;;;;4893144;29;20424;-77
2022/06/21 11:40:16;;;;;;;6.77;2.00;;;43.60;20.00;;;;;;4893355;29;20551;-78
2022/06/21 11:42:51;;;;;;;7.22;1.98;;;43.60;20.20;;;;;;4892672;29;20297;-78
2022/06/21 11:45:36;;;;;;;5.57;1.92;;;43.90;20.00;;;;;;4892995;29;20580;-77
2022/06/21 11:48:15;;;;;;;7.57;2.10;;;43.60;20.20;;;;;;4893461;29;20045;-78
2022/06/21 11:51:09;;;;;;;5.60;1.60;;;43.80;19.90;;;;;;4892815;29;20075;-78
2022/06/21 11:53:53;;;;;;;6.82;1.75;;;43.60;20.10;;;;;;4893010;29;20045;-77
2022/06/21 11:56:44;;;;;;;5.65;2.00;;;43.90;20.20;;;;;;4891609;29;20037;-76
2022/06/21 11:59:42;;;;;;;5.45;1.80;;;43.90;19.70;;;;;;4892834;29;20151;-76
2022/06/21 12:02:27;;;;;;;6.25;1.80;;;43.70;20.40;;;;;;4891610;29;20166;-79
2022/06/21 12:04:59;;;;;;;5.57;1.90;;;42.80;21.30;;;;;;4917225;28;20069;-79
2022/06/21 12:07:52;;;;;;;6.85;2.00;;;41.70;21.90;;;;;;4976061;28;20037;-78
2022/06/21 12:10:26;;;;;;;6.18;2.30;;;40.40;23.90;;;;;;5008345;28;20115;-81
2022/06/21 12:13:18;;;;;;;5.47;1.90;;;39.70;23.20;;;;;;5004023;28;20693;-79
2022/06/21 12:16:01;;;;;;;4.78;2.00;;;38.80;25.30;;;;;;4995979;28;20065;-79
2022/06/21 12:18:31;;;;;;;6.43;2.00;;;38.20;25.40;;;;;;5003670;28;20390;-79
2022/06/21 12:21:06;;;;;;;6.63;2.53;;;38.90;24.50;;;;;;4993744;28;20037;-79
2022/06/21 12:23:41;;;;;;;5.88;2.10;;;38.80;24.80;;;;;;5007338;28;20045;-78
2022/06/21 12:26:13;;;;;;;5.30;1.80;;;38.70;24.90;;;;;;5001298;28;20029;-78
2022/06/21 12:28:40;;;;;;;7.15;2.10;;;38.80;24.50;;;;;;4999395;28;20034;-79
2022/06/21 12:31:28;;;;;;;5.30;1.80;;;38.40;25.00;;;;;;4993414;28;20022;-78
2022/06/21 12:34:05;;;;;;;6.78;1.90;;;39.00;24.80;;;;;;4996098;28;20085;-78
2022/06/21 12:36:45;;;;;;;6.90;2.20;;;40.00;23.80;;;;;;4994608;28;20026;-78
2022/06/21 12:39:22;;;;;;;5.38;1.92;;;39.10;24.70;;;;;;4993075;28;20034;-78
2022/06/21 12:42:07;;;;;;;6.07;1.95;;;38.00;25.50;;;;;;4996361;28;20033;-78
2022/06/21 12:45:14;;;;;;;7.63;2.05;;;38.60;24.80;;;;;;4992990;28;20097;-78
2022/06/21 12:48:15;;;;;;;5.35;1.95;;;39.20;24.20;;;;;;5008104;28;20125;-79
2022/06/21 12:50:46;;;;;;;22.08;2.40;;;39.40;23.20;;;;;;5007804;28;20400;-78
2022/06/21 12:53:48;;;;;;;5.22;1.80;;;39.60;23.00;;;;;;5005023;28;20121;-78
2022/06/21 12:56:28;;;;;;;8.93;2.08;;;39.50;23.10;;;;;;4948603;29;20031;-78
2022/06/21 12:58:57;;;;;;;5.28;2.00;;;39.40;23.60;;;;;;4920945;29;20040;-78
2022/06/21 13:01:32;;;;;;;6.38;2.00;;;39.40;23.70;;;;;;4942550;29;20084;-78
2022/06/21 13:04:06;;;;;;;9.82;2.00;;;38.90;24.20;;;;;;4923973;29;20051;-78
2022/06/21 13:06:42;;;;;;;7.07;2.00;;;37.90;26.30;;;;;;4948104;28;20054;-78
2022/06/21 13:09:10;;;;;;;8.65;1.90;;;37.70;25.60;;;;;;4944910;28;20532;-77
2022/06/21 13:11:39;;;;;;;4.93;2.00;;;37.20;26.20;;;;;;4947571;28;20070;-78
2022/06/21 13:14:16;;;;;;;6.43;2.20;;;36.80;26.90;;;;;;4945831;29;20462;-77
2022/06/21 13:16:44;;;;;;;5.18;2.05;;;36.40;27.50;;;;;;4948828;28;20031;-77
2022/06/21 13:19:36;;;;;;;6.72;2.10;;;35.90;28.30;;;;;;4948833;28;20043;-77
2022/06/21 13:22:29;;;;;;;5.97;2.60;;;35.10;29.10;;;;;;4947959;28;20027;-78
2022/06/21 13:25:19;;;;;;;5.88;2.38;;;34.40;30.00;;;;;;4948227;29;20050;-77
2022/06/21 13:28:28;;;;;;;8.73;2.45;;;33.80;30.80;;;;;;4947961;28;20543;-77
2022/06/21 13:31:09;;;;;;;6.47;2.50;;;33.40;31.00;;;;;;4939981;28;20070;-77
2022/06/21 13:33:37;;;;;;;8.07;2.55;;;33.00;31.60;;;;;;4989647;28;20129;-77
2022/06/21 13:36:21;;;;;;;9.10;2.50;;;32.90;32.20;;;;;;4996277;28;20402;-77
2022/06/21 13:39:11;;;;;;;7.13;2.72;;;32.80;32.50;;;;;;5008622;28;20095;-77
2022/06/21 13:44:59;;;;;;;28.63;3.35;;;32.60;33.10;;;;;;4991620;28;20011;-78
2022/06/21 13:47:47;;;;;;;5.68;2.58;;;32.40;33.30;;;;;;4994790;28;20129;-77
2022/06/21 13:50:22;;;;;;;7.32;2.40;;;32.40;33.70;;;;;;4994711;28;20030;-77
2022/06/21 13:53:16;;;;;;;9.95;2.53;;;32.50;34.10;;;;;;4995672;28;20033;-77
2022/06/21 13:55:57;;;;;;;6.32;2.42;;;32.70;33.60;;;;;;4996933;28;20049;-78
2022/06/21 13:58:32;;;;;;;8.52;2.50;;;32.90;33.50;;;;;;5000139;28;20120;-78
2022/06/21 14:01:07;;;;;;;7.35;2.50;;;33.10;33.80;;;;;;4990869;28;20030;-77